Lecanto, Florida
Current Conditions -  °F | °C
As of 2:55 AM on Wednesday 26 Nov 2014 (Local Time) from KCGC Reporting Station
Moderate Rain Moderate Rain  
Wind Chill: 15°   Ceiling: 600
Heat Index: 15°   Visibility: 2.5mi
Dew Point: 14°   Wind: 9mph
Humidity: 94%   Direction: 320°NW
Pressure: 29.92"   Gusts: NA
Location:  28.86°N, 82.49°W
Report Text: KCGC 260755Z AUTO 32008KT 2 1/2SM RA OVC006 15/14 A2992 RMK AO2 LTG DSNT S P0001
Loading
Personal Weather Stations






























Interactive Weather Map New forecast layout! Learn more

10-Day Weather Forecast

Advertisements
Track Severe Weather on mobile